createdAt,value
2023-02-21T00:01:44.552Z,5.57
2023-02-21T00:04:29.852Z,4.10
2023-02-21T00:07:14.870Z,5.07
2023-02-21T00:09:59.664Z,4.07
2023-02-21T00:12:45.155Z,5.22
2023-02-21T00:15:30.525Z,4.72
2023-02-21T00:18:15.827Z,5.82
2023-02-21T00:21:00.578Z,4.07
2023-02-21T00:23:45.413Z,3.47
2023-02-21T00:26:30.467Z,5.00
2023-02-21T00:29:15.277Z,4.95
2023-02-21T00:32:00.300Z,4.93
2023-02-21T00:34:45.120Z,4.47
2023-02-21T00:37:30.126Z,6.93
2023-02-21T00:40:15.193Z,4.47
2023-02-21T00:43:00.090Z,4.15
2023-02-21T00:45:44.760Z,4.90
2023-02-21T00:48:29.741Z,5.53
2023-02-21T00:51:14.948Z,5.75
2023-02-21T00:54:00.462Z,4.05
2023-02-21T00:56:45.405Z,4.72
2023-02-21T00:59:32.018Z,3.13
2023-02-21T01:02:16.791Z,5.00
2023-02-21T01:05:01.752Z,6.18
2023-02-21T01:07:46.613Z,4.40
2023-02-21T01:10:31.439Z,6.40
2023-02-21T01:13:16.651Z,4.85
2023-02-21T01:16:03.066Z,5.10
2023-02-21T01:18:48.359Z,3.90
2023-02-21T01:21:35.698Z,4.20
2023-02-21T01:24:21.039Z,4.90
2023-02-21T01:27:06.265Z,3.88
2023-02-21T01:29:51.113Z,4.13
2023-02-21T01:32:36.419Z,3.85
2023-02-21T01:35:22.126Z,5.20
2023-02-21T01:38:06.871Z,3.22
2023-02-21T01:40:52.094Z,3.70
2023-02-21T01:43:40.511Z,3.35
2023-02-21T01:46:33.518Z,7.15
2023-02-21T01:49:22.977Z,4.95
2023-02-21T01:52:08.157Z,3.35
2023-02-21T01:54:58.436Z,3.35
2023-02-21T01:57:44.368Z,3.97
2023-02-21T02:00:32.258Z,4.68
2023-02-21T02:03:21.648Z,5.22
2023-02-21T02:06:09.924Z,4.18
2023-02-21T02:08:56.412Z,4.13
2023-02-21T02:11:59.863Z,4.30
2023-02-21T02:14:32.080Z,3.92
2023-02-21T02:17:03.602Z,3.47
2023-02-21T02:19:55.507Z,4.85
2023-02-21T02:22:53.058Z,4.80
2023-02-21T02:25:34.652Z,3.55
2023-02-21T02:28:20.419Z,4.25
2023-02-21T02:31:08.449Z,4.20
2023-02-21T02:33:54.289Z,5.45
2023-02-21T02:36:36.121Z,3.45
2023-02-21T02:41:48.283Z,3.60
2023-02-21T02:44:22.661Z,2.97
2023-02-21T02:46:51.031Z,3.83
2023-02-21T02:49:22.135Z,5.13
2023-02-21T02:51:49.604Z,3.80
2023-02-21T02:54:16.141Z,3.50
2023-02-21T02:56:43.054Z,5.60
2023-02-21T02:59:13.163Z,3.53
2023-02-21T03:01:48.591Z,2.78
2023-02-21T03:04:27.200Z,4.47
2023-02-21T03:06:59.900Z,4.63
2023-02-21T03:09:43.795Z,3.85
2023-02-21T03:12:16.781Z,3.67
2023-02-21T03:15:09.102Z,3.95
2023-02-21T03:17:42.581Z,3.55
2023-02-21T03:20:11.877Z,4.30
2023-02-21T03:22:38.606Z,3.17
2023-02-21T03:25:05.683Z,4.35
2023-02-21T03:27:33.643Z,4.35
2023-02-21T03:30:04.300Z,4.13
2023-02-21T03:32:35.751Z,4.13
2023-02-21T03:35:02.385Z,5.57
2023-02-21T03:37:33.700Z,4.10
2023-02-21T03:40:00.526Z,4.75
2023-02-21T03:42:27.048Z,4.45
2023-02-21T03:44:53.618Z,3.38
2023-02-21T03:47:20.293Z,4.05
2023-02-21T03:49:47.025Z,4.50
2023-02-21T03:52:13.765Z,4.18
2023-02-21T03:54:41.318Z,5.05
2023-02-21T03:57:08.267Z,3.95
2023-02-21T03:59:34.931Z,4.65
2023-02-21T04:02:01.770Z,7.53
2023-02-21T04:04:28.286Z,4.53
2023-02-21T04:06:54.833Z,4.50
2023-02-21T04:09:21.447Z,3.92
2023-02-21T04:11:47.967Z,4.38
2023-02-21T04:14:14.618Z,3.67
2023-02-21T04:16:42.240Z,5.63
2023-02-21T04:19:08.823Z,6.43
2023-02-21T04:21:35.375Z,6.80
2023-02-21T04:24:02.331Z,5.13
2023-02-21T04:26:30.105Z,6.22
2023-02-21T04:28:56.733Z,4.55
2023-02-21T04:31:23.634Z,4.88
2023-02-21T04:33:54.881Z,5.15
2023-02-21T04:36:26.914Z,5.30
2023-02-21T04:38:53.615Z,4.63
2023-02-21T04:41:20.837Z,5.93
2023-02-21T04:43:47.412Z,6.90
2023-02-21T04:46:17.751Z,4.32
2023-02-21T04:48:45.814Z,5.22
2023-02-21T04:51:16.218Z,6.80
2023-02-21T04:53:43.702Z,5.40
2023-02-21T04:56:11.117Z,6.82
2023-02-21T04:58:45.213Z,3.88
2023-02-21T05:01:13.455Z,6.88
2023-02-21T05:03:40.211Z,6.40
2023-02-21T05:06:06.792Z,6.20
2023-02-21T05:08:33.346Z,6.97
2023-02-21T05:10:59.935Z,7.88
2023-02-21T05:13:26.853Z,5.55
2023-02-21T05:15:53.395Z,4.45
2023-02-21T05:18:23.336Z,5.03
2023-02-21T05:20:50.322Z,6.38
2023-02-21T05:23:18.960Z,5.22
2023-02-21T05:25:45.847Z,7.22
2023-02-21T05:28:12.463Z,6.35
2023-02-21T05:30:39.082Z,5.93
2023-02-21T05:33:05.684Z,6.72
2023-02-21T05:35:32.226Z,4.93
2023-02-21T05:37:58.754Z,6.90
2023-02-21T05:40:25.275Z,4.68
2023-02-21T05:42:51.843Z,5.25
2023-02-21T05:45:18.619Z,6.10
2023-02-21T05:47:45.150Z,7.10
2023-02-21T05:50:11.663Z,6.47
2023-02-21T05:52:38.724Z,6.68
2023-02-21T05:55:05.571Z,5.85
2023-02-21T05:57:38.445Z,7.13
2023-02-21T06:00:05.576Z,6.20
2023-02-21T06:02:32.115Z,6.78
2023-02-21T06:04:58.631Z,8.50
2023-02-21T06:07:25.259Z,8.68
2023-02-21T06:09:51.810Z,6.93
2023-02-21T06:12:18.351Z,6.53
2023-02-21T06:14:44.868Z,5.90
2023-02-21T06:17:11.403Z,8.25
2023-02-21T06:19:37.908Z,8.13
2023-02-21T06:22:04.472Z,9.20
2023-02-21T06:24:30.988Z,7.88
2023-02-21T06:26:57.516Z,8.60
2023-02-21T06:29:24.024Z,9.88
2023-02-21T06:31:50.612Z,7.03
2023-02-21T06:34:17.174Z,6.78
2023-02-21T06:36:43.701Z,8.13
2023-02-21T06:39:10.816Z,10.38
2023-02-21T06:41:37.421Z,8.90
2023-02-21T06:44:04.089Z,8.57
2023-02-21T06:46:30.953Z,7.90
2023-02-21T06:48:58.195Z,7.15
2023-02-21T06:51:29.750Z,9.45
2023-02-21T06:53:58.034Z,7.18
2023-02-21T06:56:24.618Z,8.27
2023-02-21T06:58:51.172Z,11.57
2023-02-21T07:01:17.977Z,8.25
2023-02-21T07:03:46.173Z,8.68
2023-02-21T07:06:12.769Z,10.68
2023-02-21T07:08:39.420Z,9.73
2023-02-21T07:11:06.403Z,8.35
2023-02-21T07:13:33.798Z,7.70
2023-02-21T07:16:01.216Z,5.93
2023-02-21T07:18:27.947Z,7.53
2023-02-21T07:20:54.613Z,9.68
2023-02-21T07:23:21.252Z,9.95
2023-02-21T07:25:47.766Z,8.75
2023-02-21T07:28:15.019Z,11.77
2023-02-21T07:30:41.894Z,8.35
2023-02-21T07:33:08.569Z,8.15
2023-02-21T07:35:35.082Z,7.35
2023-02-21T07:38:01.666Z,7.95
2023-02-21T07:40:28.249Z,8.57
2023-02-21T07:42:55.306Z,8.70
2023-02-21T07:45:21.923Z,10.70
2023-02-21T07:47:51.001Z,9.18
2023-02-21T07:50:17.856Z,10.48
2023-02-21T07:52:45.618Z,10.13
2023-02-21T07:55:13.468Z,9.73
2023-02-21T07:57:40.127Z,8.57
2023-02-21T08:00:07.273Z,11.48
2023-02-21T08:02:33.886Z,9.10
2023-02-21T08:05:00.465Z,10.73
2023-02-21T08:07:27.051Z,11.82
2023-02-21T08:09:53.526Z,9.57
2023-02-21T08:12:20.050Z,9.77
2023-02-21T08:14:46.622Z,10.10
2023-02-21T08:17:14.155Z,13.00
2023-02-21T08:19:40.931Z,7.47
2023-02-21T08:22:07.493Z,11.18
2023-02-21T08:24:34.082Z,14.00
2023-02-21T08:27:00.623Z,9.07
2023-02-21T08:29:27.230Z,10.50
2023-02-21T08:31:53.793Z,10.05
2023-02-21T08:34:20.361Z,6.80
2023-02-21T08:36:46.939Z,6.97
2023-02-21T08:39:15.096Z,10.05
2023-02-21T08:41:44.926Z,12.30
2023-02-21T08:44:13.377Z,12.93
2023-02-21T08:46:40.856Z,11.93
2023-02-21T08:49:07.868Z,10.02
2023-02-21T08:51:35.361Z,9.93
2023-02-21T08:54:03.293Z,9.65
2023-02-21T08:56:30.845Z,9.35
2023-02-21T08:58:57.878Z,8.98
2023-02-21T09:01:30.688Z,8.82
2023-02-21T09:03:57.283Z,6.82
2023-02-21T09:06:23.905Z,8.90
2023-02-21T09:08:50.822Z,7.72
2023-02-21T09:11:17.483Z,9.93
2023-02-21T09:13:44.109Z,11.48
2023-02-21T09:16:10.731Z,10.20
2023-02-21T09:18:37.287Z,9.15
2023-02-21T09:21:04.032Z,8.68
2023-02-21T09:23:33.402Z,10.60
2023-02-21T09:25:59.998Z,9.90
2023-02-21T09:28:26.685Z,6.93
2023-02-21T09:30:53.261Z,7.75
2023-02-21T09:33:19.852Z,8.65
2023-02-21T09:35:46.507Z,9.00
2023-02-21T09:38:13.055Z,10.30
2023-02-21T09:40:39.555Z,7.78
2023-02-21T09:43:12.250Z,7.13
2023-02-21T09:45:38.977Z,7.78
2023-02-21T09:48:14.623Z,6.57
2023-02-21T09:53:34.853Z,9.52
2023-02-21T09:56:07.688Z,10.38
2023-02-21T09:58:35.922Z,8.98
2023-02-21T10:01:08.967Z,7.88
2023-02-21T10:04:01.886Z,6.43
2023-02-21T10:06:44.603Z,8.93
2023-02-21T10:09:26.022Z,11.15
2023-02-21T10:11:59.529Z,5.57
2023-02-21T10:14:50.855Z,7.85
2023-02-21T10:17:25.330Z,8.52
2023-02-21T10:20:00.591Z,7.88
2023-02-21T10:22:32.313Z,9.88
2023-02-21T10:24:59.688Z,7.22
2023-02-21T10:27:33.332Z,6.75
2023-02-21T10:30:18.081Z,9.15
2023-02-21T10:32:44.759Z,7.95
2023-02-21T10:35:11.662Z,8.02
2023-02-21T10:37:46.978Z,6.50
2023-02-21T10:40:19.768Z,7.70
2023-02-21T10:42:54.485Z,6.68
2023-02-21T10:45:29.899Z,9.70
2023-02-21T10:48:06.740Z,8.52
2023-02-21T10:50:42.082Z,6.70
2023-02-21T10:53:21.520Z,6.50
2023-02-21T10:56:15.946Z,9.15
2023-02-21T10:58:55.800Z,5.97
2023-02-21T11:01:44.258Z,7.95
2023-02-21T11:04:19.837Z,8.60
2023-02-21T11:09:30.877Z,5.45
2023-02-21T11:12:21.580Z,7.40
2023-02-21T11:14:51.048Z,5.80
2023-02-21T11:17:35.726Z,5.90
2023-02-21T11:20:09.139Z,10.60
2023-02-21T11:22:42.506Z,10.50
2023-02-21T11:25:12.075Z,6.50
2023-02-21T11:27:39.430Z,9.82
2023-02-21T11:30:20.830Z,6.07
2023-02-21T11:32:56.670Z,7.80
2023-02-21T11:35:23.679Z,7.53
2023-02-21T11:38:05.577Z,6.60
2023-02-21T11:40:43.366Z,6.40
2023-02-21T11:43:33.554Z,8.02
2023-02-21T11:46:17.681Z,8.10
2023-02-21T11:48:47.242Z,6.03
2023-02-21T11:51:26.614Z,7.93
2023-02-21T11:53:53.715Z,10.82
2023-02-21T11:56:35.965Z,8.32
2023-02-21T11:59:26.569Z,6.13
2023-02-21T12:02:24.362Z,7.22
2023-02-21T12:05:15.758Z,5.05
2023-02-21T12:08:14.897Z,7.75
2023-02-21T12:10:48.708Z,6.45
2023-02-21T12:13:33.502Z,8.63
2023-02-21T12:16:11.997Z,9.02
2023-02-21T12:18:44.745Z,8.38
2023-02-21T12:21:21.038Z,8.10
2023-02-21T12:24:05.963Z,8.23
2023-02-21T12:26:47.478Z,7.15
2023-02-21T12:30:04.115Z,7.18
2023-02-21T12:32:50.143Z,7.07
2023-02-21T12:35:38.214Z,9.55
2023-02-21T12:38:19.958Z,6.07
2023-02-21T12:40:53.287Z,6.22
2023-02-21T12:43:30.580Z,11.30
2023-02-21T12:46:16.957Z,14.00
2023-02-21T12:48:45.813Z,6.72
2023-02-21T12:51:19.702Z,6.93
2023-02-21T12:53:55.244Z,7.43
2023-02-21T12:56:37.889Z,8.20
2023-02-21T12:59:28.376Z,9.13
2023-02-21T13:02:02.142Z,5.63
2023-02-21T13:04:38.131Z,7.53
2023-02-21T13:07:25.560Z,5.47
2023-02-21T13:09:52.150Z,7.18
2023-02-21T13:12:28.256Z,7.75
2023-02-21T13:15:15.713Z,7.05
2023-02-21T13:17:44.757Z,8.32
2023-02-21T13:20:19.578Z,6.70
2023-02-21T13:23:23.599Z,7.93
2023-02-21T13:26:01.256Z,10.05
2023-02-21T13:28:36.507Z,7.43
2023-02-21T13:31:06.316Z,7.78
2023-02-21T13:33:45.589Z,6.03
2023-02-21T13:36:27.415Z,8.38
2023-02-21T13:41:29.456Z,6.45
2023-02-21T13:43:57.666Z,7.72
2023-02-21T13:46:30.480Z,5.35
2023-02-21T13:49:34.567Z,7.68
2023-02-21T13:52:19.459Z,6.05
2023-02-21T13:55:20.441Z,7.38
2023-02-21T13:58:08.680Z,7.57
2023-02-21T14:00:35.230Z,6.68
2023-02-21T14:03:28.512Z,10.23
2023-02-21T14:05:55.029Z,7.72
2023-02-21T14:08:46.326Z,4.95
2023-02-21T14:11:22.517Z,7.10
2023-02-21T14:13:54.946Z,8.40
2023-02-21T14:16:53.938Z,7.97
2023-02-21T14:19:23.388Z,9.50
2023-02-21T14:24:26.449Z,7.82
2023-02-21T14:26:52.928Z,9.40
2023-02-21T14:29:30.428Z,5.50
2023-02-21T14:32:01.109Z,8.15
2023-02-21T14:34:54.422Z,8.02
2023-02-21T14:37:44.244Z,9.27
2023-02-21T14:40:34.974Z,6.00
2023-02-21T14:43:20.282Z,7.45
2023-02-21T14:46:24.491Z,7.93
2023-02-21T14:48:59.110Z,6.63
2023-02-21T14:51:57.149Z,8.68
2023-02-21T14:54:47.256Z,8.00
2023-02-21T14:57:22.556Z,7.07
2023-02-21T15:00:01.318Z,7.38
2023-02-21T15:02:42.690Z,7.55
2023-02-21T15:05:20.368Z,8.23
2023-02-21T15:08:05.888Z,7.57
2023-02-21T15:10:40.075Z,7.03
2023-02-21T15:13:06.720Z,7.45
2023-02-21T15:15:38.485Z,5.25
2023-02-21T15:18:08.778Z,8.35
2023-02-21T15:20:38.510Z,6.55
2023-02-21T15:23:21.139Z,6.75
2023-02-21T15:25:56.562Z,6.90
2023-02-21T15:28:33.255Z,8.05
2023-02-21T15:31:06.607Z,6.05
2023-02-21T15:33:44.007Z,7.72
2023-02-21T15:36:21.728Z,8.00
2023-02-21T15:39:06.260Z,6.05
2023-02-21T15:41:44.158Z,9.18
2023-02-21T15:44:35.645Z,5.95
2023-02-21T15:47:11.509Z,6.55
2023-02-21T15:49:52.101Z,7.65
2023-02-21T15:52:30.755Z,5.28
2023-02-21T15:55:28.545Z,4.60
2023-02-21T15:58:07.218Z,8.30
2023-02-21T16:00:35.024Z,9.57
2023-02-21T16:03:29.797Z,6.45
2023-02-21T16:06:15.246Z,7.30
2023-02-21T16:08:58.972Z,7.60
2023-02-21T16:11:49.343Z,4.43
2023-02-21T16:14:41.016Z,5.88
2023-02-21T16:17:07.528Z,7.13
2023-02-21T16:19:34.490Z,5.68
2023-02-21T16:22:59.522Z,6.82
2023-02-21T16:25:25.681Z,5.95
2023-02-21T16:27:55.913Z,4.88
2023-02-21T16:30:27.371Z,6.82
2023-02-21T16:32:59.702Z,6.20
2023-02-21T16:35:27.651Z,7.53
2023-02-21T16:37:57.087Z,5.30
2023-02-21T16:42:53.477Z,5.82
2023-02-21T16:45:21.185Z,8.68
2023-02-21T16:47:49.891Z,7.10
2023-02-21T16:50:20.686Z,6.32
2023-02-21T16:52:47.526Z,6.47
2023-02-21T16:55:16.880Z,6.65
2023-02-21T16:57:47.735Z,5.95
2023-02-21T17:00:15.626Z,6.15
2023-02-21T17:02:42.218Z,4.15
2023-02-21T17:05:09.536Z,7.18
2023-02-21T17:07:36.076Z,5.88
2023-02-21T17:10:02.627Z,5.35
2023-02-21T17:12:29.164Z,8.10
2023-02-21T17:14:55.729Z,6.88
2023-02-21T17:17:22.303Z,5.30
2023-02-21T17:19:48.821Z,5.93
2023-02-21T17:22:15.439Z,5.13
2023-02-21T17:24:42.805Z,6.35
2023-02-21T17:27:11.685Z,6.35
2023-02-21T17:29:38.267Z,7.13
2023-02-21T17:32:07.148Z,6.93
2023-02-21T17:34:34.337Z,6.85
2023-02-21T17:37:01.086Z,8.00
2023-02-21T17:39:27.891Z,5.95
2023-02-21T17:41:54.502Z,6.68
2023-02-21T17:44:21.085Z,5.15
2023-02-21T17:46:52.893Z,8.82
2023-02-21T17:49:21.686Z,4.70
2023-02-21T17:51:49.222Z,5.18
2023-02-21T17:54:17.707Z,7.45
2023-02-21T17:56:44.467Z,8.63
2023-02-21T17:59:11.686Z,7.78
2023-02-21T18:01:38.305Z,10.23
2023-02-21T18:04:05.131Z,7.15
2023-02-21T18:06:31.694Z,7.57
2023-02-21T18:08:58.312Z,6.93
2023-02-21T18:11:25.851Z,8.40
2023-02-21T18:13:53.024Z,7.35
2023-02-21T18:16:19.624Z,6.75
2023-02-21T18:18:46.299Z,9.50
2023-02-21T18:21:13.547Z,6.32
2023-02-21T18:23:43.849Z,7.38
2023-02-21T18:26:10.831Z,6.78
2023-02-21T18:28:37.545Z,6.05
2023-02-21T18:31:04.246Z,5.07
2023-02-21T18:33:30.909Z,5.82
2023-02-21T18:35:59.360Z,6.13
2023-02-21T18:38:27.154Z,4.78
2023-02-21T18:40:54.646Z,6.38
2023-02-21T18:43:27.096Z,8.20
2023-02-21T18:45:55.057Z,5.90
2023-02-21T18:48:22.868Z,6.40
2023-02-21T18:50:49.873Z,5.78
2023-02-21T18:53:17.379Z,6.93
2023-02-21T18:55:44.167Z,6.05
2023-02-21T18:58:11.257Z,7.00
2023-02-21T19:00:39.639Z,5.63
2023-02-21T19:03:07.883Z,6.43
2023-02-21T19:05:35.312Z,6.00
2023-02-21T19:08:02.019Z,7.65
2023-02-21T19:10:29.600Z,7.93
2023-02-21T19:12:59.339Z,8.38
2023-02-21T19:15:26.184Z,6.97
2023-02-21T19:17:52.852Z,7.40
2023-02-21T19:20:19.842Z,7.15
2023-02-21T19:22:47.043Z,6.75
2023-02-21T19:25:16.381Z,7.88
2023-02-21T19:27:43.827Z,8.02
2023-02-21T19:30:12.631Z,7.00
2023-02-21T19:32:39.493Z,7.22
2023-02-21T19:35:06.851Z,7.68
2023-02-21T19:37:33.360Z,7.07
2023-02-21T19:40:00.026Z,7.95
2023-02-21T19:42:26.569Z,7.10
2023-02-21T19:44:53.089Z,7.07
2023-02-21T19:47:19.847Z,8.30
2023-02-21T19:49:47.580Z,7.28
2023-02-21T19:52:17.071Z,6.88
2023-02-21T19:57:10.909Z,8.77
2023-02-21T19:59:46.641Z,8.18
2023-02-21T20:04:47.329Z,8.27
2023-02-21T20:07:17.072Z,6.70
2023-02-21T20:09:45.510Z,9.32
2023-02-21T20:12:12.364Z,8.70
2023-02-21T20:14:39.506Z,7.93
2023-02-21T20:17:06.172Z,8.50
2023-02-21T20:19:35.267Z,8.48
2023-02-21T20:22:02.146Z,9.00
2023-02-21T20:24:28.797Z,6.80
2023-02-21T20:26:55.676Z,7.88
2023-02-21T20:29:25.825Z,9.68
2023-02-21T20:31:52.560Z,9.82
2023-02-21T20:34:19.193Z,7.05
2023-02-21T20:36:46.698Z,5.97
2023-02-21T20:39:19.435Z,7.13
2023-02-21T20:41:46.946Z,8.40
2023-02-21T20:44:14.093Z,5.97
2023-02-21T20:46:41.076Z,6.57
2023-02-21T20:49:07.974Z,10.02
2023-02-21T20:51:38.878Z,8.30
2023-02-21T20:54:06.113Z,8.63
2023-02-21T20:56:34.077Z,7.38
2023-02-21T20:59:01.921Z,8.15
2023-02-21T21:01:28.551Z,7.03
2023-02-21T21:03:57.121Z,3.75
2023-02-21T21:06:24.096Z,7.70
2023-02-21T21:08:50.852Z,7.90
2023-02-21T21:11:17.848Z,7.85
2023-02-21T21:13:47.766Z,7.22
2023-02-21T21:16:15.629Z,5.88
2023-02-21T21:18:45.035Z,7.63
2023-02-21T21:21:11.719Z,7.35
2023-02-21T21:23:38.267Z,7.28
2023-02-21T21:26:09.518Z,6.70
2023-02-21T21:28:36.499Z,6.60
2023-02-21T21:31:03.594Z,6.03
2023-02-21T21:33:30.178Z,7.18
2023-02-21T21:35:59.712Z,7.20
2023-02-21T21:38:28.298Z,5.60
2023-02-21T21:40:56.922Z,6.82
2023-02-21T21:43:24.645Z,6.70
2023-02-21T21:45:51.546Z,5.22
2023-02-21T21:48:19.682Z,6.53
2023-02-21T21:50:51.369Z,7.35
2023-02-21T21:53:19.364Z,8.02
2023-02-21T21:55:46.976Z,5.75
2023-02-21T21:58:13.965Z,6.68
2023-02-21T22:00:42.192Z,7.75
2023-02-21T22:03:14.187Z,6.05
2023-02-21T22:05:45.610Z,5.28
2023-02-21T22:08:16.677Z,5.88
2023-02-21T22:10:45.026Z,5.47
2023-02-21T22:13:15.092Z,5.57
2023-02-21T22:15:43.571Z,7.50
2023-02-21T22:18:11.737Z,6.78
2023-02-21T22:20:38.415Z,6.07
2023-02-21T22:23:08.154Z,5.85
2023-02-21T22:25:37.035Z,5.85
2023-02-21T22:28:12.944Z,6.53
2023-02-21T22:30:40.673Z,6.50
2023-02-21T22:33:13.397Z,8.23
2023-02-21T22:35:40.660Z,5.85
2023-02-21T22:38:07.781Z,5.70
2023-02-21T22:40:35.718Z,7.65
2023-02-21T22:43:11.272Z,6.75
2023-02-21T22:45:38.120Z,6.53
2023-02-21T22:48:07.503Z,7.35
2023-02-21T22:50:37.076Z,7.82
2023-02-21T22:53:09.626Z,7.80
2023-02-21T22:55:37.598Z,6.53
2023-02-21T22:58:07.359Z,9.13
2023-02-21T23:00:35.619Z,6.25
2023-02-21T23:03:13.943Z,7.03
2023-02-21T23:05:51.941Z,9.50
2023-02-21T23:08:21.182Z,9.25
2023-02-21T23:10:48.136Z,7.43
2023-02-21T23:13:19.086Z,6.85
2023-02-21T23:15:46.919Z,7.28
2023-02-21T23:18:20.661Z,9.85
2023-02-21T23:20:53.084Z,8.68
2023-02-21T23:23:21.979Z,9.68
2023-02-21T23:25:48.599Z,6.65
2023-02-21T23:28:15.889Z,8.05
2023-02-21T23:30:42.550Z,7.28
2023-02-21T23:33:18.621Z,6.47
2023-02-21T23:35:49.296Z,9.43
2023-02-21T23:38:16.948Z,8.25
2023-02-21T23:40:47.110Z,5.28
2023-02-21T23:43:15.996Z,7.25
2023-02-21T23:45:43.224Z,6.90
2023-02-21T23:48:15.853Z,10.23
2023-02-21T23:50:47.017Z,8.75
2023-02-21T23:53:22.652Z,8.95
2023-02-21T23:58:19.001Z,7.13
